Terminal Aerodrome Forecast
Issued by NWS Rapid City, SD

Home | Current Version | Previous Version | Graphics & Text | Print | Product List | Glossary On
Versions: 1 2 3 4 5 6 7 8 9 10 11 12 13 14 15 16 17 18 19 20 21 22 23 24
630
FTUS43 KUNR 230520
TAFRAP
TAF
KRAP 230520Z 2306/2406 17008KT P6SM BKN250 WS020/23030KT
     FM231400 18015KT P6SM SCT250=

USA.gov is the U.S. government's official web portal to all federal, state and local government web resources and services.